Latest Weather Observations for Cape Borda

IDS60801

Issued at 12:02 pm CDT Sunday 4 December 2016 (issued every 30 minutes, with the page automatically refreshed every 10 minutes)

About weather observations | Map of weather stations | Latest weather observations for SA | Other Formats
Station Details ID: 022823 Name: CAPE BORDA Lat: -35.75 Lon: 136.60 Height: 158.0 m
Data from the previous 72 hours. | See also: Recent months at Cape Borda
Date/Time
CDT
Temp
°C
App
Temp
°C
Dew
Point
°C
Rel
Hum
%
Delta-T
°C
Wind Press
QNH
hPa
Press
MSL
hPa
Rain since
9am
mm
Dir  Spd
km/h
Gust
km/h
Spd
kts
Gust
kts
04/12:00pm 23.2 21.1 13.7 55 5.6 NNW 17 26 9 14 1004.6 1004.3 0.0
04/11:30am 21.4 20.5 13.7 61 4.5 NW 11 17 6 9 1005.2 - 0.0
04/11:00am 20.8 19.3 14.2 66 3.9 WNW 15 20 8 11 1005.7 - 0.0
04/10:30am 19.3 17.8 14.1 72 3.0 WSW 15 19 8 10 1007.0 - 0.0
04/10:00am 22.2 19.6 13.7 58 5.0 N 20 28 11 15 1006.1 - 0.0
04/09:30am 21.5 17.3 12.4 56 5.2 NE 26 39 14 21 1005.0 - 0.0
04/09:00am 21.8 17.2 11.1 50 6.0 NE 26 39 14 21 1005.2 1004.9 0.0
04/08:39am 23.5 18.0 9.2 40 7.8 NNE 28 46 15 25 1005.0 - 0.0
04/08:30am 22.6 17.1 9.1 42 7.3 NE 28 39 15 21 1005.0 - 0.0
04/08:00am 21.5 16.6 8.3 42 7.0 ENE 24 30 13 16 1005.5 - 0.0
04/07:30am 20.9 16.1 8.7 45 6.5 NE 24 35 13 19 1005.7 - 0.0
04/07:00am 20.2 15.5 9.2 49 5.9 ENE 24 33 13 18 1005.3 - 0.0
04/06:30am 18.8 13.6 10.3 57 4.6 ENE 28 35 15 19 1005.2 - 0.0
04/06:00am 19.2 14.2 9.7 54 5.1 ENE 26 35 14 19 1006.4 1006.2 0.0
04/05:30am 19.6 14.3 8.4 48 5.9 ENE 26 39 14 21 1005.6 - 0.0
04/05:00am 18.1 12.5 8.8 54 4.9 ENE 28 37 15 20 1004.9 - 0.0
04/04:30am 17.7 12.0 8.5 55 4.8 ENE 28 37 15 20 1005.2 - 0.0
04/04:00am 17.6 12.8 8.8 56 4.6 ENE 24 32 13 17 1005.3 - 0.0
04/03:30am 18.3 12.7 7.1 48 5.7 ENE 26 32 14 17 1005.5 - 0.0
04/03:00am 17.4 12.0 8.1 54 4.8 ENE 26 32 14 17 1006.2 1006.0 0.0
04/02:30am 17.7 12.5 7.3 50 5.3 ENE 24 32 13 17 1006.5 - 0.0
04/02:00am 18.3 12.9 6.3 45 6.0 NE 24 32 13 17 1007.2 - 0.0
04/01:30am 17.8 12.6 5.3 43 6.1 ENE 22 28 12 15 1007.5 - 0.0
04/01:00am 17.7 12.3 4.6 42 6.3 NE 22 26 12 14 1008.1 - 0.0
04/12:30am 18.0 13.0 4.8 41 6.4 NE 20 26 11 14 1008.3 - 0.0
04/12:00am 15.8 11.2 5.4 50 5.0 ENE 19 20 10 11 1008.6 1008.3 0.0
 
Date/Time
CDT
Temp
°C
App
Temp
°C
Dew
Point
°C
Rel
Hum
%
Delta-T
°C
Wind Press
QNH
hPa
Press
MSL
hPa
Rain since
9am
mm
Dir  Spd
km/h
Gust
km/h
Spd
kts
Gust
kts
03/11:30pm 15.0 10.6 7.6 61 3.7 E 20 20 11 11 1008.8 - 0.0
03/11:00pm 16.0 11.8 8.2 60 4.0 ENE 20 24 11 13 1009.7 - 0.0
03/10:00pm 14.2 10.9 9.4 73 2.5 E 17 20 9 11 1010.4 - 0.0
03/09:30pm 14.6 11.1 10.2 75 2.3 E 19 24 10 13 1010.4 - 0.0
03/09:00pm 15.4 11.8 10.5 72 2.6 ESE 20 24 11 13 1010.7 1010.4 0.0
03/08:30pm 16.7 13.7 10.8 68 3.2 ESE 17 22 9 12 1011.3 - 0.0
03/08:00pm 18.8 16.7 11.2 61 4.2 ESE 13 17 7 9 1011.3 - 0.0
03/07:30pm 20.3 17.9 10.0 51 5.6 SE 13 17 7 9 1011.2 - 0.0
03/07:00pm 20.2 17.5 8.9 48 6.0 SE 13 19 7 10 1011.2 - 0.0
03/06:30pm 19.2 16.0 8.3 49 5.7 S 15 20 8 11 1011.2 - 0.0
03/06:00pm 19.5 15.8 7.9 47 6.0 SSW 17 22 9 12 1011.4 1011.2 0.0
03/05:30pm 19.5 16.6 8.2 48 5.9 SW 13 19 7 10 1011.8 - 0.0
03/05:00pm 19.8 16.8 7.9 46 6.2 WSW 13 17 7 9 1011.9 - 0.0
03/04:30pm 19.4 16.8 7.6 46 6.1 W 11 15 6 8 1012.1 - 0.0
03/04:00pm 18.9 15.6 8.1 49 5.6 WNW 15 19 8 10 1012.4 - 0.0
03/03:30pm 18.9 15.9 7.6 48 5.8 NW 13 17 7 9 1012.1 - 0.0
03/03:00pm 19.6 17.0 9.5 52 5.4 W 13 17 7 9 1011.9 1011.7 0.0
03/02:30pm 18.9 16.1 8.6 51 5.4 W 13 20 7 11 1012.7 - 0.0
03/02:00pm 19.1 16.1 7.9 48 5.8 W 13 19 7 10 1013.0 - 0.0
03/01:30pm 18.1 15.0 8.7 54 4.9 W 15 20 8 11 1013.5 - 0.0
03/01:00pm 18.3 16.0 10.5 60 4.2 NNW 13 17 7 9 1013.7 - 0.0
03/12:30pm 18.0 15.6 10.2 60 4.2 N 13 17 7 9 1013.7 - 0.0
03/12:00pm 18.0 15.1 9.5 57 4.5 N 15 20 8 11 1013.8 1013.6 0.0
03/11:30am 18.3 14.8 8.7 53 5.0 N 17 22 9 12 1013.7 - 0.0
03/11:00am 17.8 13.6 7.3 50 5.3 NE 19 26 10 14 1013.7 - 0.0
03/10:30am 17.4 13.7 7.8 53 4.9 NNE 17 22 9 12 1013.8 - 0.0
03/10:00am 16.7 13.0 6.1 49 5.2 NNE 15 20 8 11 1014.0 - 0.0
03/09:30am 17.1 13.2 5.3 45 5.7 E 15 20 8 11 1014.2 - 0.0
03/09:00am 15.9 11.9 6.8 54 4.5 NE 17 24 9 13 1014.6 1014.3 0.0
03/08:30am 14.9 10.4 7.0 59 3.9 E 20 26 11 14 1014.6 - 0.0
03/08:00am 13.5 9.7 7.4 66 3.0 ESE 17 28 9 15 1014.5 - 0.0
03/07:30am 11.9 8.4 7.2 73 2.3 ESE 15 22 8 12 1014.7 - 0.0
03/07:00am 10.1 6.5 6.9 80 1.5 ESE 15 17 8 9 1014.6 - 0.0
03/06:30am 8.6 4.2 6.4 86 1.0 ESE 19 20 10 11 1014.4 - 0.0
03/06:00am 7.9 3.8 6.2 89 0.8 SE 17 20 9 11 1014.2 1013.9 0.0
03/05:30am 7.7 3.2 5.9 88 0.8 ESE 19 22 10 12 1013.8 - 0.0
03/05:00am 6.8 2.1 5.2 89 0.7 ESE 19 19 10 10 1013.6 - 0.0
03/04:30am 7.1 2.8 5.3 88 0.8 ESE 17 20 9 11 1013.7 - 0.0
03/04:00am 7.4 2.8 5.4 87 0.9 ESE 19 20 10 11 1013.9 - 0.0
03/03:30am 7.7 3.5 5.5 86 1.0 ESE 17 20 9 11 1013.9 - 0.0
03/03:00am 7.8 3.1 5.1 83 1.2 ESE 19 20 10 11 1014.0 1013.8 0.0
03/02:30am 7.8 3.0 4.6 80 1.4 ESE 19 22 10 12 1014.4 - 0.0
03/02:00am 8.1 3.3 4.5 78 1.6 ESE 19 22 10 12 1014.5 - 0.0
03/01:30am 8.3 3.5 4.5 77 1.7 ESE 19 22 10 12 1014.6 - 0.0
03/01:00am 8.7 3.7 4.7 76 1.8 ESE 20 24 11 13 1014.8 - 0.0
03/12:30am 9.2 4.4 4.5 72 2.1 SE 19 24 10 13 1015.1 - 0.0
03/12:00am 9.6 4.7 4.2 69 2.4 SE 19 24 10 13 1015.3 1015.0 0.0
 
Date/Time
CDT
Temp
°C
App
Temp
°C
Dew
Point
°C
Rel
Hum
%
Delta-T
°C
Wind Press
QNH
hPa
Press
MSL
hPa
Rain since
9am
mm
Dir  Spd
km/h
Gust
km/h
Spd
kts
Gust
kts
02/11:30pm 9.8 4.8 4.4 69 2.4 SE 20 26 11 14 1015.5 - 0.0
02/11:00pm 9.9 5.1 4.6 69 2.4 SE 19 24 10 13 1015.7 - 0.0
02/10:30pm 10.5 5.5 4.8 68 2.6 SE 20 26 11 14 1015.9 - 0.0
02/10:00pm 10.6 5.2 4.6 66 2.7 SE 22 26 12 14 1015.9 - 0.0
02/09:30pm 10.7 5.7 4.5 65 2.8 SE 20 26 11 14 1015.6 - 0.0
02/09:00pm 11.2 5.9 5.1 66 2.8 SE 22 26 12 14 1015.8 1015.5 0.0
02/08:30pm 11.8 7.0 5.4 65 3.0 SSE 20 26 11 14 1015.6 - 0.0
02/08:00pm 13.0 7.7 4.8 57 3.8 SSE 22 28 12 15 1015.4 - 0.0
02/07:30pm 14.4 8.6 4.5 51 4.6 S 24 32 13 17 1015.3 - 0.0
02/07:00pm 15.4 9.6 4.6 48 5.1 S 24 33 13 18 1015.1 - 0.0
02/06:30pm 15.7 9.1 4.2 46 5.4 S 28 35 15 19 1014.8 - 0.0
02/06:00pm 16.7 11.4 4.8 45 5.7 S 22 33 12 18 1014.7 1014.4 0.0
02/05:30pm 16.7 10.5 4.5 44 5.8 S 26 35 14 19 1014.5 - 0.0
02/05:00pm 17.8 12.1 4.7 42 6.3 SSE 24 28 13 15 1014.8 - 0.0
02/04:30pm 17.3 11.6 4.8 43 6.0 S 24 35 13 19 1014.8 - 0.0
02/04:00pm 17.4 11.1 5.8 46 5.7 SSW 28 39 15 21 1014.6 - 0.0
02/03:30pm 17.0 9.8 5.7 47 5.5 SSW 33 44 18 24 1014.8 - 0.0
02/03:00pm 17.2 10.3 6.3 48 5.4 SSW 32 43 17 23 1014.9 1014.6 0.0
02/02:30pm 17.0 10.0 6.0 48 5.4 SSW 32 43 17 23 1014.9 - 0.0
02/02:00pm 16.9 9.7 6.1 49 5.3 SW 33 44 18 24 1015.0 - 0.0
02/01:30pm 16.9 10.0 6.4 50 5.2 SSW 32 43 17 23 1015.1 - 0.0
02/01:00pm 16.8 10.2 6.0 49 5.3 SW 30 39 16 21 1015.1 - 0.0
02/12:30pm 17.1 10.8 5.9 47 5.5 SW 28 39 15 21 1015.2 - 0.0
02/12:00pm 16.4 10.3 4.6 45 5.6 SW 26 33 14 18 1015.3 1015.0 0.0
02/11:30am 16.3 10.2 5.0 47 5.4 SW 26 35 14 19 1015.2 - 0.0
02/11:00am 15.7 10.5 5.3 50 5.0 SW 22 32 12 17 1015.1 - 0.0
02/10:30am 16.3 10.8 5.8 50 5.1 S 24 30 13 16 1015.1 - 0.0
02/10:00am 15.7 12.3 5.8 51 4.8 SSE 13 22 7 12 1015.0 - 0.0
02/09:30am 14.8 10.0 5.4 53 4.5 SSW 20 28 11 15 1014.9 - 0.0
02/09:00am 14.4 9.8 5.6 55 4.2 S 19 28 10 15 1014.7 1014.4 0.0
02/08:30am 13.2 8.7 6.3 63 3.3 S 19 28 10 15 1014.5 - 0.0
02/08:00am 13.6 9.0 6.6 62 3.4 S 20 26 11 14 1014.0 - 0.0
02/07:30am 13.1 9.3 7.6 69 2.7 S 17 22 9 12 1013.6 - 0.0
02/07:00am 11.7 8.9 8.5 81 1.6 S 13 17 7 9 1013.2 - 0.0
02/06:30am 11.1 8.0 8.7 85 1.2 S 15 19 8 10 1013.0 - 0.0
02/06:00am 10.8 8.0 8.6 86 1.1 S 13 17 7 9 1012.6 1012.4 0.0
02/05:30am 10.8 7.6 8.4 85 1.2 S 15 19 8 10 1012.1 - 0.0
02/05:00am 11.8 8.4 9.2 84 1.3 S 17 22 9 12 1011.8 - 0.0
02/04:30am 12.7 9.6 10.2 85 1.3 S 17 24 9 13 1011.6 - 0.0
02/04:00am 12.7 10.1 10.6 87 1.1 S 15 22 8 12 1011.5 - 0.0
02/03:30am 13.0 10.4 10.7 86 1.2 S 15 20 8 11 1011.4 - 0.0
02/03:00am 13.2 9.2 10.5 84 1.4 SSW 22 32 12 17 1010.9 1010.7 0.0
02/02:30am 13.1 9.4 11.6 91 0.8 SSW 22 33 12 18 1010.7 - 0.0
02/02:00am 13.8 10.5 11.6 86 1.2 SSW 20 30 11 16 1010.6 - 0.0
02/01:30am 14.2 11.2 12.6 90 0.9 SW 20 32 11 17 1010.7 - 0.0
02/01:00am 13.9 11.3 12.1 89 1.0 SW 17 24 9 13 1010.6 - 0.0
02/12:30am 13.1 10.4 11.8 92 0.7 SW 17 22 9 12 1010.6 - 0.0
02/12:00am 13.2 10.5 11.7 91 0.8 SW 17 22 9 12 1010.5 1010.2 0.0
 
Date/Time
CDT
Temp
°C
App
Temp
°C
Dew
Point
°C
Rel
Hum
%
Delta-T
°C
Wind Press
QNH
hPa
Press
MSL
hPa
Rain since
9am
mm
Dir  Spd
km/h
Gust
km/h
Spd
kts
Gust
kts
01/11:30pm 12.9 10.4 11.2 89 0.9 SW 15 19 8 10 1010.5 - 0.0
01/11:00pm 13.2 10.3 11.1 87 1.1 SW 17 24 9 13 1010.6 - 0.0
01/10:30pm 12.7 10.2 11.0 89 0.9 SW 15 19 8 10 1010.5 - 0.0
01/10:00pm 12.6 10.4 10.7 88 1.0 SSW 13 15 7 8 1010.3 - 0.0
01/09:30pm 13.0 10.5 10.9 87 1.1 SSW 15 20 8 11 1010.2 - 0.0
01/09:00pm 13.1 10.4 10.4 84 1.4 SSW 15 17 8 9 1010.0 1009.7 0.0
01/08:30pm 13.8 11.0 10.0 78 2.0 SSW 15 20 8 11 1009.8 - 0.0
01/08:00pm 15.0 11.6 9.2 68 3.0 SSW 17 20 9 11 1009.5 - 0.0
01/07:30pm 15.7 12.2 10.2 70 2.9 SSW 19 24 10 13 1009.3 - 0.0
01/07:00pm 16.0 12.4 10.4 69 3.0 SSW 20 26 11 14 1009.1 - 0.0
01/06:30pm 16.7 12.8 10.8 68 3.2 SSW 22 32 12 17 1008.9 - 0.0
01/06:00pm 17.0 13.6 11.3 69 3.1 SW 20 30 11 16 1008.8 1008.5 0.0
01/05:30pm 17.4 13.8 11.8 69 3.1 WSW 22 30 12 16 1008.8 - 0.0
01/05:00pm 17.4 14.0 11.2 67 3.4 WSW 20 26 11 14 1009.0 - 0.0
01/04:30pm 17.6 15.1 11.0 65 3.6 W 15 20 8 11 1009.0 - 0.0
01/04:00pm 17.5 14.6 10.9 65 3.6 W 17 22 9 12 1009.1 - 0.0
01/03:30pm 17.5 14.3 11.1 66 3.5 W 19 24 10 13 1009.3 - 0.0
01/03:00pm 17.8 14.9 11.0 64 3.7 W 17 20 9 11 1009.4 1009.1 0.0
01/02:30pm 17.7 14.7 10.7 63 3.8 W 17 24 9 13 1009.8 - 0.0
01/02:00pm 17.3 14.3 10.6 64 3.6 NW 17 22 9 12 1009.8 - 0.0
01/01:30pm 16.6 13.7 9.6 63 3.7 NNW 15 20 8 11 1009.7 - 0.0
01/01:00pm 16.7 13.7 9.3 61 3.9 NNW 15 19 8 10 1009.9 - 0.0
01/12:30pm 16.3 12.7 8.5 60 4.0 N 17 20 9 11 1009.6 - 0.0

Other Formats:

Comma delimited format used in spreadsheet applications
http://www.bom.gov.au/fwo/IDS60801/IDS60801.95805.axf

JavaScript Object Notation format (JSON) in row-major order
http://www.bom.gov.au/fwo/IDS60801/IDS60801.95805.json